createdAt,value
2023-01-31T00:00:12.778Z,4.73
2023-01-31T00:03:37.498Z,4.80
2023-01-31T00:07:01.863Z,4.57
2023-01-31T00:10:27.325Z,4.03
2023-01-31T00:13:53.396Z,5.03
2023-01-31T00:17:25.289Z,3.83
2023-01-31T00:20:48.876Z,5.53
2023-01-31T00:24:15.407Z,3.97
2023-01-31T00:27:41.288Z,4.47
2023-01-31T00:31:07.637Z,5.63
2023-01-31T00:34:31.920Z,3.77
2023-01-31T00:37:55.760Z,3.93
2023-01-31T00:41:20.237Z,5.20
2023-01-31T00:44:47.338Z,3.60
2023-01-31T00:48:12.250Z,4.40
2023-01-31T00:51:36.010Z,3.83
2023-01-31T00:55:02.111Z,4.00
2023-01-31T00:58:25.594Z,4.50
2023-01-31T01:01:55.734Z,4.30
2023-01-31T01:05:20.265Z,4.33
2023-01-31T01:08:45.909Z,4.60
2023-01-31T01:12:09.944Z,4.73
2023-01-31T01:15:39.061Z,4.33
2023-01-31T01:19:06.251Z,5.67
2023-01-31T01:22:29.999Z,5.43
2023-01-31T01:25:57.090Z,4.50
2023-01-31T01:29:22.758Z,4.97
2023-01-31T01:32:47.165Z,3.60
2023-01-31T01:36:16.098Z,4.57
2023-01-31T01:39:39.976Z,5.10
2023-01-31T01:43:04.173Z,4.97
2023-01-31T01:46:31.712Z,4.50
2023-01-31T01:49:59.801Z,4.90
2023-01-31T01:53:28.744Z,4.30
2023-01-31T01:57:01.211Z,4.50
2023-01-31T02:00:27.699Z,5.80
2023-01-31T02:03:53.778Z,4.53
2023-01-31T02:07:18.009Z,3.80
2023-01-31T02:10:50.643Z,4.43
2023-01-31T02:14:16.386Z,3.83
2023-01-31T02:17:44.491Z,3.23
2023-01-31T02:21:50.832Z,4.17
2023-01-31T02:25:44.099Z,4.87
2023-01-31T02:29:35.377Z,4.60
2023-01-31T02:33:07.936Z,4.37
2023-01-31T02:36:39.126Z,4.30
2023-01-31T02:40:09.511Z,4.67
2023-01-31T02:44:06.279Z,5.13
2023-01-31T02:47:41.138Z,3.80
2023-01-31T02:51:15.690Z,4.93
2023-01-31T02:54:56.262Z,5.87
2023-01-31T02:58:24.274Z,4.60
2023-01-31T03:01:52.281Z,2.57
2023-01-31T03:05:17.028Z,3.57
2023-01-31T03:08:45.896Z,4.20
2023-01-31T03:12:23.552Z,4.63
2023-01-31T03:16:12.315Z,4.30
2023-01-31T03:19:44.231Z,5.10
2023-01-31T03:23:15.400Z,4.03
2023-01-31T03:26:40.849Z,3.87
2023-01-31T03:30:10.894Z,4.50
2023-01-31T03:33:38.903Z,4.97
2023-01-31T03:37:15.542Z,3.80
2023-01-31T03:40:49.203Z,4.60
2023-01-31T03:44:20.613Z,4.93
2023-01-31T03:47:47.946Z,4.67
2023-01-31T03:51:19.479Z,5.10
2023-01-31T03:54:50.007Z,4.80
2023-01-31T03:58:19.660Z,4.03
2023-01-31T04:01:49.594Z,4.83
2023-01-31T04:05:18.703Z,3.83
2023-01-31T04:08:45.180Z,4.73
2023-01-31T04:12:12.728Z,3.20
2023-01-31T04:15:37.199Z,4.73
2023-01-31T04:19:03.194Z,4.60
2023-01-31T04:22:27.284Z,5.83
2023-01-31T04:25:50.849Z,4.93
2023-01-31T04:29:15.201Z,3.43
2023-01-31T04:32:39.152Z,4.83
2023-01-31T04:36:05.182Z,4.20
2023-01-31T04:39:29.175Z,5.50
2023-01-31T04:42:52.711Z,5.00
2023-01-31T04:46:17.167Z,3.97
2023-01-31T04:49:40.703Z,4.30
2023-01-31T04:53:06.286Z,3.40
2023-01-31T04:56:29.821Z,5.53
2023-01-31T04:59:56.362Z,6.40
2023-01-31T05:03:20.198Z,4.53
2023-01-31T05:06:46.568Z,5.87
2023-01-31T05:10:15.135Z,3.27
2023-01-31T05:13:41.524Z,3.60
2023-01-31T05:17:05.618Z,5.10
2023-01-31T05:20:32.491Z,4.80
2023-01-31T05:23:56.184Z,6.00
2023-01-31T05:27:21.575Z,4.90
2023-01-31T05:30:45.695Z,4.47
2023-01-31T05:34:14.439Z,4.90
2023-01-31T05:37:38.415Z,6.30
2023-01-31T05:41:02.305Z,5.13
2023-01-31T05:44:27.609Z,4.60
2023-01-31T05:47:51.817Z,4.83
2023-01-31T05:51:16.281Z,5.00
2023-01-31T05:54:40.206Z,6.50
2023-01-31T05:58:04.243Z,6.40
2023-01-31T06:01:30.911Z,6.40
2023-01-31T06:04:57.279Z,5.90
2023-01-31T06:08:20.910Z,5.20
2023-01-31T06:11:45.259Z,6.47
2023-01-31T06:15:57.099Z,7.20
2023-01-31T06:19:25.347Z,5.00
2023-01-31T06:22:48.947Z,5.33
2023-01-31T06:26:12.839Z,5.07
2023-01-31T06:29:37.331Z,6.50
2023-01-31T06:33:01.079Z,5.97
2023-01-31T06:36:26.110Z,6.30
2023-01-31T06:39:49.661Z,6.97
2023-01-31T06:43:13.201Z,6.00
2023-01-31T06:46:37.030Z,6.87
2023-01-31T06:50:00.583Z,6.17
2023-01-31T06:53:25.457Z,8.90
2023-01-31T06:56:49.277Z,6.57
2023-01-31T07:00:13.948Z,7.30
2023-01-31T07:03:37.530Z,7.67
2023-01-31T07:07:01.028Z,9.13
2023-01-31T07:10:26.326Z,6.93
2023-01-31T07:13:50.335Z,7.50
2023-01-31T07:17:13.829Z,5.03
2023-01-31T07:20:37.318Z,7.20
2023-01-31T07:24:00.813Z,8.00
2023-01-31T07:27:25.716Z,8.57
2023-01-31T07:30:49.316Z,8.17
2023-01-31T07:34:12.863Z,7.93
2023-01-31T07:37:36.732Z,8.37
2023-01-31T07:41:01.639Z,8.33
2023-01-31T07:44:26.523Z,8.67
2023-01-31T07:47:49.992Z,9.00
2023-01-31T07:51:13.624Z,8.40
2023-01-31T07:54:37.156Z,7.30
2023-01-31T07:58:00.638Z,9.40
2023-01-31T08:01:44.604Z,11.97
2023-01-31T08:05:09.602Z,9.40
2023-01-31T08:08:33.127Z,7.70
2023-01-31T08:11:56.634Z,9.03
2023-01-31T08:15:20.548Z,9.97
2023-01-31T08:18:46.284Z,9.30
2023-01-31T08:22:10.357Z,8.60
2023-01-31T08:25:33.827Z,10.53
2023-01-31T08:28:59.937Z,8.50
2023-01-31T08:32:23.482Z,9.10
2023-01-31T08:35:48.370Z,10.30
2023-01-31T08:39:12.144Z,8.77
2023-01-31T08:42:35.706Z,9.57
2023-01-31T08:45:59.232Z,8.27
2023-01-31T08:49:22.777Z,8.17
2023-01-31T08:53:01.443Z,8.50
2023-01-31T08:56:26.250Z,8.60
2023-01-31T08:59:49.856Z,8.17
2023-01-31T09:03:17.711Z,8.33
2023-01-31T09:06:41.204Z,6.27
2023-01-31T09:10:06.886Z,6.70
2023-01-31T09:13:31.589Z,9.03
2023-01-31T09:16:55.178Z,11.10
2023-01-31T09:20:18.962Z,7.83
2023-01-31T09:23:43.099Z,7.00
2023-01-31T09:27:07.980Z,7.40
2023-01-31T09:30:32.160Z,9.40
2023-01-31T09:33:56.070Z,8.10
2023-01-31T09:37:19.664Z,9.70
2023-01-31T09:40:43.690Z,8.47
2023-01-31T09:44:15.514Z,8.00
2023-01-31T09:47:42.814Z,9.80
2023-01-31T09:51:07.214Z,7.47
2023-01-31T09:54:36.376Z,8.90
2023-01-31T09:58:05.884Z,9.33
2023-01-31T10:01:46.051Z,8.43
2023-01-31T10:05:23.285Z,10.23
2023-01-31T10:08:55.426Z,9.03
2023-01-31T10:12:23.961Z,7.20
2023-01-31T10:15:51.946Z,8.57
2023-01-31T10:19:22.396Z,7.77
2023-01-31T10:22:49.217Z,8.50
2023-01-31T10:26:17.263Z,7.87
2023-01-31T10:29:45.008Z,9.40
2023-01-31T10:33:20.870Z,7.80
2023-01-31T10:36:50.721Z,8.20
2023-01-31T10:40:16.707Z,8.67
2023-01-31T10:43:46.838Z,11.00
2023-01-31T10:47:14.809Z,8.67
2023-01-31T10:50:49.665Z,11.50
2023-01-31T10:54:24.389Z,9.67
2023-01-31T10:57:48.211Z,9.63
2023-01-31T11:01:14.549Z,11.33
2023-01-31T11:04:42.226Z,9.40
2023-01-31T11:08:21.424Z,11.43
2023-01-31T11:11:57.619Z,12.00
2023-01-31T11:15:24.310Z,10.53
2023-01-31T11:18:50.467Z,10.67
2023-01-31T11:22:23.878Z,12.43
2023-01-31T11:25:50.497Z,10.80
2023-01-31T11:29:20.992Z,10.63
2023-01-31T11:32:45.556Z,11.03
2023-01-31T11:36:10.446Z,10.70
2023-01-31T11:39:38.127Z,11.60
2023-01-31T11:43:03.615Z,15.03
2023-01-31T11:46:28.550Z,10.97
2023-01-31T11:49:52.146Z,10.67
2023-01-31T11:53:19.807Z,11.70
2023-01-31T11:56:46.016Z,11.37
2023-01-31T12:00:23.045Z,10.77
2023-01-31T12:04:01.676Z,10.30
2023-01-31T12:07:28.981Z,12.27
2023-01-31T12:10:52.542Z,13.17
2023-01-31T12:14:19.237Z,13.47
2023-01-31T12:17:46.762Z,15.00
2023-01-31T12:21:15.677Z,12.20
2023-01-31T12:24:53.259Z,13.23
2023-01-31T12:28:32.012Z,12.37
2023-01-31T12:32:10.386Z,12.10
2023-01-31T12:35:49.307Z,16.40
2023-01-31T12:39:33.067Z,16.60
2023-01-31T12:42:59.804Z,16.07
2023-01-31T12:46:31.734Z,15.73
2023-01-31T12:50:02.799Z,16.10
2023-01-31T12:53:49.055Z,13.70
2023-01-31T12:57:30.108Z,13.10
2023-01-31T13:00:59.869Z,14.67
2023-01-31T13:04:34.585Z,17.13
2023-01-31T13:08:03.309Z,16.23
2023-01-31T13:11:32.134Z,15.30
2023-01-31T13:15:04.516Z,15.07
2023-01-31T13:18:30.224Z,14.57
2023-01-31T13:21:58.238Z,18.37
2023-01-31T13:25:24.455Z,14.97
2023-01-31T13:28:52.868Z,18.50
2023-01-31T13:32:26.648Z,16.20
2023-01-31T13:35:58.699Z,16.57
2023-01-31T13:39:25.453Z,15.50
2023-01-31T13:42:50.657Z,16.03
2023-01-31T13:46:19.080Z,15.40
2023-01-31T13:49:48.220Z,17.80
2023-01-31T13:53:17.259Z,14.90
2023-01-31T13:56:42.671Z,12.87
2023-01-31T14:00:10.950Z,14.47
2023-01-31T14:04:14.938Z,12.90
2023-01-31T14:07:39.872Z,14.07
2023-01-31T14:11:04.964Z,11.03
2023-01-31T14:14:45.331Z,11.77
2023-01-31T14:18:09.328Z,11.00
2023-01-31T14:21:54.835Z,11.93
2023-01-31T14:25:42.709Z,11.40
2023-01-31T14:29:10.532Z,9.87
2023-01-31T14:32:37.279Z,10.93
2023-01-31T14:36:37.800Z,10.27
2023-01-31T14:40:16.868Z,9.70
2023-01-31T14:43:58.215Z,11.70
2023-01-31T14:47:36.766Z,11.23
2023-01-31T14:51:24.824Z,10.70
2023-01-31T14:55:01.475Z,11.37
2023-01-31T14:58:28.035Z,11.53
2023-01-31T15:01:53.072Z,11.17
2023-01-31T15:05:20.514Z,9.90
2023-01-31T15:08:46.993Z,11.30
2023-01-31T15:12:43.794Z,12.60
2023-01-31T15:16:11.900Z,9.60
2023-01-31T15:19:45.296Z,10.30
2023-01-31T15:23:21.342Z,11.50
2023-01-31T15:26:46.898Z,12.23
2023-01-31T15:30:18.263Z,12.73
2023-01-31T15:33:45.643Z,10.90
2023-01-31T15:37:20.187Z,10.90
2023-01-31T15:40:43.729Z,11.53
2023-01-31T15:44:18.588Z,11.17
2023-01-31T15:47:42.722Z,13.10
2023-01-31T15:51:06.641Z,11.07
2023-01-31T15:54:31.569Z,11.30
2023-01-31T15:57:57.806Z,11.40
2023-01-31T16:01:23.213Z,12.27
2023-01-31T16:04:48.735Z,11.63
2023-01-31T16:08:21.913Z,11.47
2023-01-31T16:11:46.990Z,12.53
2023-01-31T16:15:19.962Z,12.23
2023-01-31T16:18:49.110Z,15.43
2023-01-31T16:22:27.192Z,10.30
2023-01-31T16:25:55.655Z,13.00
2023-01-31T16:29:23.520Z,12.13
2023-01-31T16:32:51.350Z,12.50
2023-01-31T16:36:18.443Z,11.77
2023-01-31T16:39:46.544Z,11.70
2023-01-31T16:43:12.191Z,14.10
2023-01-31T16:46:41.955Z,13.50
2023-01-31T16:50:41.753Z,12.37
2023-01-31T16:54:24.103Z,14.93
2023-01-31T16:57:48.279Z,16.50
2023-01-31T17:01:15.306Z,17.20
2023-01-31T17:04:42.453Z,13.00
2023-01-31T17:08:06.602Z,15.73
2023-01-31T17:11:42.244Z,13.40
2023-01-31T17:15:14.853Z,13.83
2023-01-31T17:18:38.420Z,15.10
2023-01-31T17:22:05.221Z,13.93
2023-01-31T17:25:32.674Z,12.00
2023-01-31T17:29:01.817Z,11.83
2023-01-31T17:32:25.842Z,11.30
2023-01-31T17:35:49.749Z,11.97
2023-01-31T17:39:14.868Z,13.70
2023-01-31T17:42:38.584Z,12.80
2023-01-31T17:46:02.117Z,11.70
2023-01-31T17:49:25.722Z,12.33
2023-01-31T17:52:49.927Z,11.20
2023-01-31T17:56:14.905Z,12.00
2023-01-31T17:59:38.554Z,10.80
2023-01-31T18:03:02.135Z,11.13
2023-01-31T18:06:25.653Z,10.43
2023-01-31T18:09:49.202Z,9.10
2023-01-31T18:13:14.210Z,10.27
2023-01-31T18:16:37.729Z,7.57
2023-01-31T18:20:01.298Z,9.63
2023-01-31T18:23:25.150Z,7.97
2023-01-31T18:26:49.213Z,8.23
2023-01-31T18:30:15.015Z,8.53
2023-01-31T18:33:38.713Z,7.63
2023-01-31T18:37:02.685Z,6.63
2023-01-31T18:40:26.516Z,6.90
2023-01-31T18:43:50.549Z,7.17
2023-01-31T18:47:16.861Z,6.57
2023-01-31T18:50:40.500Z,6.20
2023-01-31T18:54:04.189Z,5.40
2023-01-31T18:57:27.796Z,5.43
2023-01-31T19:00:51.521Z,5.37
2023-01-31T19:04:16.481Z,4.70
2023-01-31T19:07:40.177Z,5.70
2023-01-31T19:11:06.279Z,7.00
2023-01-31T19:14:30.160Z,6.77
2023-01-31T19:17:56.629Z,4.73
2023-01-31T19:21:25.142Z,6.03
2023-01-31T19:24:49.134Z,5.67
2023-01-31T19:28:13.079Z,5.03
2023-01-31T19:31:36.691Z,4.70
2023-01-31T19:35:00.244Z,6.07
2023-01-31T19:38:25.239Z,6.07
2023-01-31T19:41:48.736Z,5.63
2023-01-31T19:45:12.787Z,5.73
2023-01-31T19:48:45.517Z,6.07
2023-01-31T19:52:09.357Z,5.73
2023-01-31T19:55:34.813Z,5.83
2023-01-31T19:58:58.564Z,10.67
2023-01-31T20:02:22.105Z,7.20
2023-01-31T20:05:45.855Z,4.93
2023-01-31T20:09:15.851Z,7.60
2023-01-31T20:12:40.751Z,6.40
2023-01-31T20:16:06.968Z,5.80
2023-01-31T20:19:30.571Z,4.50
2023-01-31T20:22:54.218Z,5.23
2023-01-31T20:26:19.626Z,7.33
2023-01-31T20:29:44.747Z,9.10
2023-01-31T20:33:08.265Z,6.20
2023-01-31T20:36:31.839Z,10.27
2023-01-31T20:39:55.452Z,7.40
2023-01-31T20:43:19.340Z,13.53
2023-01-31T20:46:44.414Z,4.80
2023-01-31T20:50:08.523Z,6.30
2023-01-31T20:53:32.529Z,4.77
2023-01-31T20:56:56.215Z,4.90
2023-01-31T21:00:21.770Z,4.80
2023-01-31T21:03:46.856Z,5.00
2023-01-31T21:07:10.393Z,4.33
2023-01-31T21:10:34.008Z,4.90
2023-01-31T21:13:57.541Z,5.17
2023-01-31T21:17:27.604Z,4.13
2023-01-31T21:20:59.270Z,4.60
2023-01-31T21:24:22.829Z,5.73
2023-01-31T21:27:46.401Z,5.40
2023-01-31T21:31:12.521Z,5.10
2023-01-31T21:34:36.296Z,4.30
2023-01-31T21:38:01.378Z,7.27
2023-01-31T21:41:42.222Z,4.20
2023-01-31T21:45:06.576Z,6.87
2023-01-31T21:48:30.118Z,5.40
2023-01-31T21:51:53.701Z,4.77
2023-01-31T21:55:19.084Z,4.70
2023-01-31T21:58:43.470Z,5.67
2023-01-31T22:02:07.276Z,8.30
2023-01-31T22:05:30.806Z,6.07
2023-01-31T22:08:56.821Z,4.97
2023-01-31T22:12:21.833Z,4.10
2023-01-31T22:15:45.445Z,5.17
2023-01-31T22:19:11.158Z,6.93
2023-01-31T22:22:35.442Z,4.83
2023-01-31T22:26:03.955Z,6.80
2023-01-31T22:29:31.271Z,5.43
2023-01-31T22:32:55.331Z,4.67
2023-01-31T22:36:22.099Z,5.23
2023-01-31T22:39:48.257Z,5.70
2023-01-31T22:43:13.752Z,5.63
2023-01-31T22:46:38.957Z,4.43
2023-01-31T22:50:04.110Z,4.60
2023-01-31T22:53:29.898Z,4.67
2023-01-31T22:56:54.382Z,4.80
2023-01-31T23:00:19.323Z,4.73
2023-01-31T23:03:45.449Z,5.17
2023-01-31T23:07:10.552Z,5.37
2023-01-31T23:10:34.425Z,4.80
2023-01-31T23:13:59.350Z,5.43
2023-01-31T23:17:38.936Z,5.00
2023-01-31T23:21:08.822Z,5.90
2023-01-31T23:24:32.430Z,3.73
2023-01-31T23:27:57.100Z,4.87
2023-01-31T23:31:20.735Z,4.63
2023-01-31T23:34:44.288Z,5.63
2023-01-31T23:38:09.760Z,5.23
2023-01-31T23:41:35.963Z,4.27
2023-01-31T23:45:00.940Z,4.80
2023-01-31T23:48:25.459Z,4.17
2023-01-31T23:51:49.401Z,4.90
2023-01-31T23:55:15.263Z,5.23
2023-01-31T23:58:38.777Z,4.80
